Holloman Air Force Base
KHMN : now visible

Airfield :











YOU CAN JOIN US ON...

 
LOGIN :

Register | Disclaimer

   EN    FR    IT 

 









Legend :    VFR   Marginal VFR   IFR   Intensive IFR   Very Intensive IFR
Visi :
Ceiling :
>= 8 km
>= 3000ft
5 to 8 km
1000 to 3000 ft
1500m to 5 km
500 to 1000 ft
800 to 1500m
200 to 500 ft
< 800m
< 200 ft
Symbols :   Thunderstorms  Fog  Heavy snow  Heavy precipitations  Wind > 20 kt






- Airport Elevation : 4093 ft


KHMN - Holloman Air Force Base

CURRENT METAR :
  • 011758Z AUTO 21014G19KT 10SM OVC130 25/M05 A2988 RMK AO2 SLP059 T02541050 10254 20149 57009 $

EXPIRED METARs :
  • 011746Z AUTO 23010KT 10SM OVC130 25/M05 A2989 RMK AO2 WSHFT 44 SLP062 $
  • 011658Z AUTO 15010KT 10SM OVC130 22/M03 A2990 RMK AO2 SLP069 T02191035 $
  • 011558Z AUTO 13010KT 10SM FEW140 BKN160 20/M05 A2991 RMK AO2 SLP075 T02041047 $

TAF TAF KHMN
Valid from the 01 at 17:00 until the 02 at 23:00 UTC


011700Z 0117/0223 19009KT 9999 SCT130 BKN160 QNH2990INS
BECMG 0117/0118 24015G25KT 9999 SCT130 BKN160 QNH2981INS
TEMPO 0123/0201 25025G35KT 9000 BLDU
BECMG 0202/0203 23010G15KT 9999 SCT150 QNH2985INS
BECMG 0207/0208 20009KT 9999 FEW140 QNH2989INS
BECMG 0219/0220 26015G20KT 9999 SCT180 QNH2985INS TX26/0121Z TN10/0213Z



MET'MAP, your aeronautical weather chart ! - Copyright ORBIFLY December 2007 - Disclaimer

ORBIFLY MET'MAP TEAM :

Programming & Development : Alexandra Zaïnal
Concept & original design : Baudouin d'Aumeries
Assistance for programming : Marc-Olivier Méhu
Technical & hardware support : Manuel Goepfert

Contact : metmap@orbifly.com




SOURCES & CREDITS :

   NOAA       Earth
Advisory